Time;durP1;ratioP1;P1;durP2;ratioP2;P2;SDS_P1;SDS_P2;PMS_P1;PMS_P2;Temp;Humidity;BMP_temperature;BMP_pressure;BME280_temperature;BME280_humidity;BME280_pressure;Samples;Min_cycle;Max_cycle;Signal;HPM_P1;HPM_P2
2023/01/21 00:01:08;;;;;;;3.70;3.40;;;;;;;;;;5063289;28;20481;-41
2023/01/21 00:03:33;;;;;;;4.70;3.55;;;;;;;;;;5065149;28;20041;-41
2023/01/21 00:05:58;;;;;;;5.63;4.32;;;;;;;;;;5064447;28;20036;-41
2023/01/21 00:08:25;;;;;;;5.88;4.22;;;;;;;;;;5065359;28;20045;-41
2023/01/21 00:10:50;;;;;;;4.78;3.80;;;;;;;;;;5066532;28;20021;-41
2023/01/21 00:13:16;;;;;;;4.03;3.55;;;;;;;;;;5064993;28;20049;-44
2023/01/21 00:15:41;;;;;;;5.93;3.95;;;;;;;;;;5064029;28;20035;-41
2023/01/21 00:18:07;;;;;;;6.25;3.72;;;;;;;;;;5064616;28;20094;-41
2023/01/21 00:20:33;;;;;;;5.72;4.18;;;;;;;;;;5064026;28;20426;-42
2023/01/21 00:22:58;;;;;;;8.60;4.30;;;;;;;;;;5065151;28;20041;-41
2023/01/21 00:25:24;;;;;;;4.30;3.90;;;;;;;;;;5065356;28;20656;-42
2023/01/21 00:27:50;;;;;;;8.15;4.95;;;;;;;;;;5063342;28;20056;-41
2023/01/21 00:30:15;;;;;;;4.22;3.83;;;;;;;;;;5064190;28;20468;-42
2023/01/21 00:32:41;;;;;;;5.93;4.25;;;;;;;;;;5066548;28;20055;-41
2023/01/21 00:35:07;;;;;;;7.68;4.15;;;;;;;;;;5069987;28;20029;-41
2023/01/21 00:37:33;;;;;;;3.97;3.50;;;;;;;;;;5072213;28;20041;-41
2023/01/21 00:39:58;;;;;;;7.55;4.82;;;;;;;;;;5071247;28;20060;-42
2023/01/21 00:42:24;;;;;;;9.63;5.63;;;;;;;;;;5072188;28;20053;-41
2023/01/21 00:44:49;;;;;;;7.43;4.32;;;;;;;;;;5072273;28;20039;-42
2023/01/21 00:47:15;;;;;;;7.30;4.80;;;;;;;;;;5068232;28;20029;-40
2023/01/21 00:49:40;;;;;;;8.85;4.82;;;;;;;;;;5069250;28;20036;-42
2023/01/21 00:52:06;;;;;;;5.10;3.88;;;;;;;;;;5070590;28;20040;-41
2023/01/21 00:54:31;;;;;;;5.85;4.70;;;;;;;;;;5070328;28;20120;-41
2023/01/21 00:56:59;;;;;;;7.05;5.28;;;;;;;;;;5070824;28;20439;-42
2023/01/21 00:59:27;;;;;;;8.27;5.38;;;;;;;;;;5070062;28;20049;-42
2023/01/21 01:01:53;;;;;;;6.28;4.43;;;;;;;;;;5066998;28;20028;-41
2023/01/21 01:04:19;;;;;;;8.00;4.25;;;;;;;;;;5067275;28;20461;-41
2023/01/21 01:06:44;;;;;;;4.70;4.18;;;;;;;;;;5072034;28;20484;-41
2023/01/21 01:09:11;;;;;;;4.65;3.50;;;;;;;;;;5066572;28;20112;-41
2023/01/21 01:11:38;;;;;;;4.85;3.60;;;;;;;;;;5071639;28;20024;-42
2023/01/21 01:14:03;;;;;;;4.35;3.40;;;;;;;;;;5068672;28;20051;-41
2023/01/21 01:16:28;;;;;;;3.50;3.13;;;;;;;;;;5068547;28;20375;-41
2023/01/21 01:18:54;;;;;;;4.10;3.58;;;;;;;;;;5069056;28;20131;-41
2023/01/21 01:21:23;;;;;;;4.90;3.90;;;;;;;;;;5072790;28;20426;-41
2023/01/21 01:23:50;;;;;;;5.57;3.50;;;;;;;;;;5068147;28;20076;-41
2023/01/21 01:26:17;;;;;;;3.10;2.80;;;;;;;;;;5070610;28;20024;-40
2023/01/21 01:28:43;;;;;;;4.18;3.67;;;;;;;;;;5067968;28;20104;-43
2023/01/21 01:31:11;;;;;;;4.00;3.45;;;;;;;;;;5068220;28;20071;-41
2023/01/21 01:33:37;;;;;;;4.47;3.50;;;;;;;;;;5065782;28;20036;-43
2023/01/21 01:36:14;;;;;;;3.55;3.25;;;;;;;;;;5070685;28;20120;-42
2023/01/21 01:38:39;;;;;;;5.18;3.67;;;;;;;;;;5069643;28;20525;-41
2023/01/21 01:41:05;;;;;;;3.85;3.40;;;;;;;;;;5069030;28;20021;-42
2023/01/21 01:44:02;;;;;;;3.63;3.33;;;;;;;;;;5069728;28;20040;-41
2023/01/21 01:46:33;;;;;;;5.88;3.50;;;;;;;;;;5064944;28;20070;-42
2023/01/21 01:49:13;;;;;;;4.68;3.40;;;;;;;;;;5064437;28;20028;-44
2023/01/21 01:51:53;;;;;;;5.25;2.55;;;;;;;;;;5067646;28;20030;-41
2023/01/21 01:54:29;;;;;;;3.35;3.05;;;;;;;;;;5062740;28;20052;-42
2023/01/21 01:56:58;;;;;;;3.95;3.25;;;;;;;;;;5067256;28;20039;-41
2023/01/21 01:59:24;;;;;;;3.28;2.70;;;;;;;;;;5065788;28;20043;-42
2023/01/21 02:01:50;;;;;;;3.33;3.03;;;;;;;;;;5068999;28;20032;-42
2023/01/21 02:04:25;;;;;;;3.42;3.10;;;;;;;;;;5063868;28;20041;-41
2023/01/21 02:06:53;;;;;;;3.45;3.00;;;;;;;;;;5066468;28;20033;-42
2023/01/21 02:09:18;;;;;;;4.30;2.88;;;;;;;;;;5067570;28;20048;-43
2023/01/21 02:11:44;;;;;;;3.03;2.78;;;;;;;;;;5065164;28;20036;-42
2023/01/21 02:14:09;;;;;;;3.92;2.88;;;;;;;;;;5065687;28;20041;-41
2023/01/21 02:16:45;;;;;;;3.80;2.67;;;;;;;;;;5067642;28;20480;-42
2023/01/21 02:19:12;;;;;;;3.25;2.67;;;;;;;;;;5066111;28;20045;-42
2023/01/21 02:22:05;;;;;;;2.80;2.60;;;;;;;;;;5064700;28;20137;-42
2023/01/21 02:24:49;;;;;;;4.18;2.80;;;;;;;;;;5065967;28;20040;-42
2023/01/21 02:27:30;;;;;;;2.97;2.63;;;;;;;;;;5061094;28;20050;-40
2023/01/21 02:30:41;;;;;;;2.83;2.40;;;;;;;;;;5065511;28;20652;-41
2023/01/21 02:33:22;;;;;;;4.13;2.60;;;;;;;;;;4994297;28;20141;-42
2023/01/21 02:36:09;;;;;;;4.00;2.40;;;;;;;;;;4992124;28;20057;-42
2023/01/21 02:39:10;;;;;;;3.53;2.47;;;;;;;;;;4993339;28;20043;-41
2023/01/21 02:42:03;;;;;;;4.22;2.47;;;;;;;;;;4998414;28;20038;-41
2023/01/21 02:44:41;;;;;;;2.80;2.50;;;;;;;;;;4986579;28;20591;-41
2023/01/21 02:47:14;;;;;;;4.07;2.70;;;;;;;;;;4993806;28;20030;-41
2023/01/21 02:49:45;;;;;;;3.20;2.88;;;;;;;;;;4995352;28;20049;-42
2023/01/21 02:52:18;;;;;;;6.57;3.53;;;;;;;;;;4992976;28;20073;-41
2023/01/21 02:54:48;;;;;;;4.93;3.20;;;;;;;;;;4993366;28;20039;-41
2023/01/21 02:57:46;;;;;;;4.20;3.00;;;;;;;;;;4992271;28;20037;-40
2023/01/21 03:00:24;;;;;;;4.30;2.97;;;;;;;;;;4989600;28;20045;-41
2023/01/21 03:03:13;;;;;;;4.63;3.40;;;;;;;;;;4985012;28;20045;-41
2023/01/21 03:06:27;;;;;;;4.80;3.22;;;;;;;;;;4990736;28;20034;-41
2023/01/21 03:08:58;;;;;;;2.95;2.75;;;;;;;;;;4920585;28;20064;-41
2023/01/21 03:11:24;;;;;;;2.70;2.50;;;;;;;;;;4986825;28;20038;-42
2023/01/21 03:16:58;;;;;;;2.63;2.42;;;;;;;;;;4987946;28;20058;-41
2023/01/21 03:19:41;;;;;;;4.45;2.30;;;;;;;;;;4987473;28;20050;-41
2023/01/21 03:22:13;;;;;;;3.00;2.65;;;;;;;;;;4984346;28;20057;-41
2023/01/21 03:24:42;;;;;;;3.22;2.50;;;;;;;;;;4985753;28;20050;-41
2023/01/21 03:27:12;;;;;;;4.00;2.92;;;;;;;;;;4985204;28;20142;-45
2023/01/21 03:29:41;;;;;;;3.15;2.25;;;;;;;;;;4985895;28;20086;-40
2023/01/21 03:32:09;;;;;;;2.45;2.25;;;;;;;;;;4986520;28;20125;-41
2023/01/21 03:34:40;;;;;;;3.05;2.45;;;;;;;;;;4985853;28;20397;-42
2023/01/21 03:37:16;;;;;;;3.72;3.00;;;;;;;;;;4982334;28;20137;-41
2023/01/21 03:40:11;;;;;;;2.63;2.42;;;;;;;;;;5032704;28;20504;-42
2023/01/21 03:42:36;;;;;;;2.30;2.10;;;;;;;;;;5065186;28;20080;-41
2023/01/21 03:45:02;;;;;;;5.65;2.58;;;;;;;;;;5064707;28;20488;-40
2023/01/21 03:47:34;;;;;;;3.42;2.78;;;;;;;;;;5065790;28;20028;-41
2023/01/21 03:50:05;;;;;;;3.00;2.78;;;;;;;;;;5065120;28;20529;-41
2023/01/21 03:52:30;;;;;;;3.78;2.78;;;;;;;;;;5063958;28;20040;-42
2023/01/21 03:54:56;;;;;;;3.53;2.78;;;;;;;;;;5064890;28;20538;-40
2023/01/21 03:57:21;;;;;;;4.38;2.80;;;;;;;;;;5064526;28;20036;-43
2023/01/21 03:59:47;;;;;;;4.32;2.75;;;;;;;;;;5065104;28;20112;-41
2023/01/21 04:02:17;;;;;;;3.08;2.85;;;;;;;;;;5063659;28;20036;-41
2023/01/21 04:04:43;;;;;;;5.15;2.95;;;;;;;;;;5065296;28;20520;-42
2023/01/21 04:07:08;;;;;;;8.20;2.95;;;;;;;;;;5064765;28;20116;-43
2023/01/21 04:09:34;;;;;;;2.92;2.67;;;;;;;;;;5062634;28;20047;-41
2023/01/21 04:11:59;;;;;;;5.80;3.58;;;;;;;;;;5065468;28;20416;-42
2023/01/21 04:14:24;;;;;;;5.13;3.35;;;;;;;;;;5061723;28;20045;-41
2023/01/21 04:16:50;;;;;;;5.88;2.95;;;;;;;;;;5062360;28;20473;-41
2023/01/21 04:19:15;;;;;;;3.17;2.85;;;;;;;;;;5063847;28;20124;-41
2023/01/21 04:21:40;;;;;;;3.30;3.00;;;;;;;;;;5064906;28;20020;-43
2023/01/21 04:24:06;;;;;;;4.25;3.03;;;;;;;;;;5063477;28;20039;-41
2023/01/21 04:26:31;;;;;;;3.75;2.60;;;;;;;;;;5065322;28;20028;-42
2023/01/21 04:28:57;;;;;;;3.03;2.83;;;;;;;;;;5067207;28;20036;-41
2023/01/21 04:31:22;;;;;;;6.40;2.90;;;;;;;;;;5064397;28;20050;-41
2023/01/21 04:33:48;;;;;;;4.07;2.78;;;;;;;;;;5065313;28;20132;-41
2023/01/21 04:36:13;;;;;;;3.70;2.88;;;;;;;;;;5062727;28;20439;-42
2023/01/21 04:38:38;;;;;;;5.32;3.08;;;;;;;;;;5062299;28;20056;-42
2023/01/21 04:41:04;;;;;;;4.28;2.90;;;;;;;;;;5065994;28;20035;-42
2023/01/21 04:43:29;;;;;;;3.15;2.67;;;;;;;;;;5062905;28;20032;-42
2023/01/21 04:45:55;;;;;;;3.40;2.65;;;;;;;;;;5063683;28;20025;-41
2023/01/21 04:48:20;;;;;;;4.57;3.00;;;;;;;;;;5062063;28;20090;-41
2023/01/21 04:50:45;;;;;;;3.60;3.13;;;;;;;;;;5065398;28;20063;-41
2023/01/21 04:53:11;;;;;;;4.22;3.20;;;;;;;;;;5063434;28;20127;-41
2023/01/21 04:55:36;;;;;;;3.80;3.00;;;;;;;;;;5064328;28;20020;-41
2023/01/21 04:58:02;;;;;;;4.65;3.97;;;;;;;;;;5064609;28;20119;-41
2023/01/21 05:00:27;;;;;;;4.50;3.90;;;;;;;;;;5067487;28;20501;-41
2023/01/21 05:02:52;;;;;;;10.68;7.47;;;;;;;;;;5065644;28;20119;-41
2023/01/21 05:05:18;;;;;;;5.18;4.05;;;;;;;;;;5061262;28;20384;-41
2023/01/21 05:07:44;;;;;;;8.55;7.07;;;;;;;;;;5065324;28;20029;-41
2023/01/21 05:10:15;;;;;;;24.02;21.25;;;;;;;;;;5065099;28;20025;-41
2023/01/21 05:12:40;;;;;;;4.50;3.95;;;;;;;;;;5063685;28;20048;-41
2023/01/21 05:15:06;;;;;;;4.50;4.03;;;;;;;;;;5065277;28;20109;-41
2023/01/21 05:17:31;;;;;;;6.35;4.72;;;;;;;;;;5064404;28;20573;-41
2023/01/21 05:19:57;;;;;;;4.82;4.43;;;;;;;;;;5062737;28;20021;-41
2023/01/21 05:22:22;;;;;;;6.97;3.85;;;;;;;;;;5066505;28;20523;-42
2023/01/21 05:24:47;;;;;;;3.60;3.10;;;;;;;;;;5066130;28;20048;-42
2023/01/21 05:27:13;;;;;;;3.22;2.90;;;;;;;;;;5066281;28;20151;-42
2023/01/21 05:29:39;;;;;;;4.43;3.03;;;;;;;;;;5066936;28;20460;-42
2023/01/21 05:32:04;;;;;;;4.93;2.67;;;;;;;;;;5064978;28;20488;-41
2023/01/21 05:34:30;;;;;;;4.95;4.10;;;;;;;;;;5067073;28;20052;-44
2023/01/21 05:36:55;;;;;;;4.13;3.33;;;;;;;;;;5068121;28;20071;-42
2023/01/21 05:39:20;;;;;;;21.88;12.15;;;;;;;;;;5064490;28;20049;-41
2023/01/21 05:41:46;;;;;;;9.07;6.72;;;;;;;;;;5067769;28;20025;-41
2023/01/21 05:44:11;;;;;;;6.20;4.38;;;;;;;;;;5066242;28;20075;-41
2023/01/21 05:46:36;;;;;;;4.43;3.40;;;;;;;;;;5069207;28;20115;-43
2023/01/21 05:49:02;;;;;;;6.20;3.00;;;;;;;;;;5067655;28;20043;-42
2023/01/21 05:51:27;;;;;;;5.25;3.60;;;;;;;;;;5067389;28;20035;-41
2023/01/21 05:53:53;;;;;;;4.22;3.25;;;;;;;;;;5067433;28;20045;-43
2023/01/21 05:56:18;;;;;;;3.63;3.20;;;;;;;;;;5065407;28;20028;-40
2023/01/21 05:58:43;;;;;;;6.82;4.45;;;;;;;;;;5065488;28;20489;-41
2023/01/21 06:01:09;;;;;;;4.30;3.53;;;;;;;;;;5067011;28;20029;-41
2023/01/21 06:03:35;;;;;;;8.88;4.78;;;;;;;;;;5066852;28;20444;-42
2023/01/21 06:06:00;;;;;;;5.75;3.60;;;;;;;;;;5065691;28;20024;-41
2023/01/21 06:08:26;;;;;;;11.00;5.55;;;;;;;;;;5067655;28;20044;-41
2023/01/21 06:10:55;;;;;;;9.93;5.93;;;;;;;;;;5067541;28;20040;-42
2023/01/21 06:13:21;;;;;;;13.10;7.10;;;;;;;;;;5063350;28;20101;-41
2023/01/21 06:15:46;;;;;;;7.13;4.10;;;;;;;;;;5066796;28;20055;-41
2023/01/21 06:18:12;;;;;;;4.55;3.60;;;;;;;;;;5065621;28;20492;-42
2023/01/21 06:20:37;;;;;;;7.88;6.25;;;;;;;;;;5066027;28;20037;-42
2023/01/21 06:23:03;;;;;;;6.93;5.38;;;;;;;;;;5067103;28;20489;-41
2023/01/21 06:25:29;;;;;;;9.23;3.65;;;;;;;;;;5065490;28;20025;-41
2023/01/21 06:27:54;;;;;;;4.28;3.88;;;;;;;;;;5063971;28;20056;-43
2023/01/21 06:30:21;;;;;;;7.70;5.15;;;;;;;;;;5066980;28;20059;-41
2023/01/21 06:32:46;;;;;;;5.40;4.70;;;;;;;;;;5067122;28;20144;-44
2023/01/21 06:35:12;;;;;;;4.25;3.72;;;;;;;;;;5066327;28;20095;-41
2023/01/21 06:37:37;;;;;;;9.68;6.00;;;;;;;;;;5067625;28;20139;-41
2023/01/21 06:40:04;;;;;;;13.63;8.40;;;;;;;;;;5063199;28;20036;-43
2023/01/21 06:42:29;;;;;;;8.20;4.97;;;;;;;;;;5065878;28;20029;-41
2023/01/21 06:44:54;;;;;;;6.70;4.72;;;;;;;;;;5064111;28;20133;-41
2023/01/21 06:47:20;;;;;;;3.42;3.13;;;;;;;;;;5065171;28;20507;-41
2023/01/21 06:49:45;;;;;;;6.30;5.65;;;;;;;;;;5065789;28;20026;-41
2023/01/21 06:52:10;;;;;;;7.25;4.65;;;;;;;;;;5065693;28;20489;-39
2023/01/21 06:54:36;;;;;;;3.53;2.72;;;;;;;;;;5063951;28;20035;-41
2023/01/21 06:57:01;;;;;;;4.85;3.65;;;;;;;;;;5066226;28;20032;-41
2023/01/21 06:59:26;;;;;;;16.60;10.15;;;;;;;;;;5063975;28;20064;-41
2023/01/21 07:01:52;;;;;;;8.38;4.80;;;;;;;;;;5063120;28;20060;-41
2023/01/21 07:04:17;;;;;;;9.35;4.75;;;;;;;;;;5063078;28;20481;-40
2023/01/21 07:06:43;;;;;;;4.82;3.60;;;;;;;;;;5064553;28;20033;-46
2023/01/21 07:09:08;;;;;;;4.95;3.33;;;;;;;;;;5056346;28;20048;-41
2023/01/21 07:11:34;;;;;;;5.93;4.03;;;;;;;;;;5068914;28;20170;-41
2023/01/21 07:13:59;;;;;;;5.65;3.38;;;;;;;;;;5064458;28;20071;-41
2023/01/21 07:16:25;;;;;;;3.63;2.33;;;;;;;;;;5060603;28;20035;-41
2023/01/21 07:18:50;;;;;;;5.30;3.00;;;;;;;;;;5062940;28;20729;-41
2023/01/21 07:21:16;;;;;;;8.38;3.28;;;;;;;;;;5066496;28;20036;-41
2023/01/21 07:23:42;;;;;;;4.32;2.65;;;;;;;;;;5060804;28;20036;-41
2023/01/21 07:26:08;;;;;;;3.22;2.60;;;;;;;;;;5064366;28;20099;-41
2023/01/21 07:28:33;;;;;;;2.13;2.00;;;;;;;;;;5065930;28;20040;-41
2023/01/21 07:31:00;;;;;;;3.35;1.88;;;;;;;;;;5065044;28;20048;-41
2023/01/21 07:33:25;;;;;;;3.30;2.47;;;;;;;;;;5062764;28;20122;-41
2023/01/21 07:35:50;;;;;;;2.38;1.80;;;;;;;;;;5066054;28;20036;-45
2023/01/21 07:38:16;;;;;;;3.22;2.05;;;;;;;;;;5065395;28;20067;-41
2023/01/21 07:40:42;;;;;;;5.05;3.15;;;;;;;;;;5062985;28;20043;-42
2023/01/21 07:43:08;;;;;;;5.75;2.30;;;;;;;;;;5064393;28;20049;-41
2023/01/21 07:45:33;;;;;;;2.28;1.95;;;;;;;;;;5065161;28;20024;-42
2023/01/21 07:47:58;;;;;;;3.10;2.17;;;;;;;;;;5065615;28;20059;-42
2023/01/21 07:50:24;;;;;;;3.20;1.80;;;;;;;;;;5061621;28;20028;-41
2023/01/21 07:52:52;;;;;;;1.80;1.70;;;;;;;;;;5063473;28;20051;-42
2023/01/21 07:55:17;;;;;;;2.10;1.90;;;;;;;;;;5064579;28;20037;-41
2023/01/21 07:57:43;;;;;;;2.25;2.15;;;;;;;;;;5061818;28;20723;-42
2023/01/21 08:00:09;;;;;;;1.92;1.83;;;;;;;;;;5068404;28;20107;-48
2023/01/21 08:02:35;;;;;;;5.10;2.20;;;;;;;;;;5065830;28;20044;-42
2023/01/21 08:05:00;;;;;;;5.75;2.50;;;;;;;;;;5065848;28;20100;-42
2023/01/21 08:07:25;;;;;;;3.85;2.63;;;;;;;;;;5063463;28;20021;-51
2023/01/21 08:09:51;;;;;;;2.90;2.20;;;;;;;;;;5064552;28;20028;-41
2023/01/21 08:12:16;;;;;;;2.13;1.92;;;;;;;;;;5065300;28;20132;-41
2023/01/21 08:14:41;;;;;;;2.17;1.98;;;;;;;;;;5063975;28;20039;-41
2023/01/21 08:17:07;;;;;;;3.28;2.40;;;;;;;;;;5065073;28;20027;-42
2023/01/21 08:19:32;;;;;;;2.50;1.90;;;;;;;;;;5061439;28;20033;-43
2023/01/21 08:21:58;;;;;;;4.10;1.88;;;;;;;;;;5065233;28;22076;-42
2023/01/21 08:24:23;;;;;;;2.80;2.30;;;;;;;;;;5064673;28;20048;-41
2023/01/21 08:26:48;;;;;;;2.42;1.90;;;;;;;;;;5063667;28;20028;-41
2023/01/21 08:29:14;;;;;;;3.10;2.00;;;;;;;;;;5063607;28;20291;-41
2023/01/21 08:31:39;;;;;;;2.30;2.10;;;;;;;;;;5066306;28;20049;-42
2023/01/21 08:34:05;;;;;;;5.82;4.03;;;;;;;;;;5061758;28;20041;-42
2023/01/21 08:36:30;;;;;;;5.45;4.65;;;;;;;;;;5063137;28;20070;-41
2023/01/21 08:39:04;;;;;;;2.90;2.65;;;;;;;;;;5064205;28;20143;-41
2023/01/21 08:41:30;;;;;;;2.28;2.08;;;;;;;;;;5065212;28;20028;-42
2023/01/21 08:43:55;;;;;;;3.30;2.50;;;;;;;;;;5062908;28;20037;-42
2023/01/21 08:46:21;;;;;;;6.97;2.22;;;;;;;;;;5065823;28;20033;-42
2023/01/21 08:48:46;;;;;;;2.30;2.15;;;;;;;;;;5061717;28;20441;-42
2023/01/21 08:51:11;;;;;;;2.40;2.20;;;;;;;;;;5064211;28;20062;-42
2023/01/21 08:53:37;;;;;;;2.20;2.00;;;;;;;;;;5065195;28;20052;-42
2023/01/21 08:56:03;;;;;;;3.03;1.85;;;;;;;;;;5068529;28;20024;-42
2023/01/21 08:58:29;;;;;;;2.80;2.33;;;;;;;;;;5061822;28;20037;-42
2023/01/21 09:00:56;;;;;;;2.38;2.03;;;;;;;;;;5069284;28;20032;-42
2023/01/21 09:03:21;;;;;;;2.30;2.10;;;;;;;;;;5061379;28;20091;-43
2023/01/21 09:05:50;;;;;;;2.15;2.00;;;;;;;;;;5068384;28;20056;-42
2023/01/21 09:08:16;;;;;;;2.00;1.85;;;;;;;;;;5065094;28;20071;-42
2023/01/21 09:10:59;;;;;;;2.47;2.28;;;;;;;;;;5067446;28;20028;-43
2023/01/21 09:13:26;;;;;;;2.47;2.20;;;;;;;;;;5062571;28;20047;-41
2023/01/21 09:15:52;;;;;;;3.90;3.13;;;;;;;;;;5059380;28;20473;-43
2023/01/21 09:18:17;;;;;;;3.38;2.22;;;;;;;;;;5060451;28;20045;-41
2023/01/21 09:20:42;;;;;;;5.10;2.00;;;;;;;;;;5063427;28;20669;-41
2023/01/21 09:23:24;;;;;;;2.00;1.90;;;;;;;;;;5065896;28;20474;-43
2023/01/21 09:25:50;;;;;;;1.75;1.55;;;;;;;;;;5059539;28;20566;-41
2023/01/21 09:28:16;;;;;;;2.30;2.00;;;;;;;;;;5062962;28;20044;-42
2023/01/21 09:30:41;;;;;;;4.80;1.58;;;;;;;;;;5063739;28;20122;-41
2023/01/21 09:33:07;;;;;;;1.95;1.75;;;;;;;;;;5063884;28;20507;-42
2023/01/21 09:35:32;;;;;;;6.00;1.73;;;;;;;;;;5071221;28;20056;-42
2023/01/21 09:37:57;;;;;;;1.55;1.45;;;;;;;;;;5062129;28;20032;-42
2023/01/21 09:40:23;;;;;;;2.03;1.73;;;;;;;;;;5064718;28;20492;-42
2023/01/21 09:42:49;;;;;;;3.25;1.90;;;;;;;;;;5066063;28;20128;-43
2023/01/21 09:45:16;;;;;;;2.15;1.95;;;;;;;;;;5064931;28;20122;-41
2023/01/21 09:47:43;;;;;;;3.47;1.92;;;;;;;;;;5068392;28;20122;-44
2023/01/21 09:50:17;;;;;;;3.20;2.03;;;;;;;;;;5065280;28;20368;-52
2023/01/21 09:52:45;;;;;;;3.92;2.13;;;;;;;;;;5063954;28;20056;-41
2023/01/21 09:55:15;;;;;;;2.35;1.98;;;;;;;;;;5065130;28;20036;-42
2023/01/21 09:58:02;;;;;;;1.70;1.60;;;;;;;;;;5062355;28;20044;-41
2023/01/21 10:01:12;;;;;;;3.85;1.73;;;;;;;;;;5063186;28;20112;-42
2023/01/21 10:03:48;;;;;;;2.67;1.50;;;;;;;;;;5063175;28;20044;-41
2023/01/21 10:06:22;;;;;;;2.95;1.88;;;;;;;;;;5068172;28;20059;-42
2023/01/21 10:09:18;;;;;;;1.80;1.65;;;;;;;;;;5056864;28;20496;-41
2023/01/21 10:12:11;;;;;;;6.05;2.53;;;;;;;;;;5064828;28;20040;-43
2023/01/21 10:15:05;;;;;;;1.92;1.67;;;;;;;;;;5063079;28;20044;-43
2023/01/21 10:17:50;;;;;;;2.25;1.95;;;;;;;;;;5062660;28;20089;-41
2023/01/21 10:20:44;;;;;;;2.53;2.03;;;;;;;;;;5065151;28;20033;-42
2023/01/21 10:23:12;;;;;;;3.22;1.83;;;;;;;;;;5062977;28;20040;-41
2023/01/21 10:25:39;;;;;;;4.00;1.63;;;;;;;;;;5064607;28;20062;-41
2023/01/21 10:28:13;;;;;;;4.22;2.45;;;;;;;;;;5064465;28;20039;-41
2023/01/21 10:30:42;;;;;;;2.78;1.38;;;;;;;;;;5059583;28;21967;-44
2023/01/21 10:33:16;;;;;;;2.70;1.77;;;;;;;;;;5065505;28;20107;-42
2023/01/21 10:36:09;;;;;;;1.98;1.42;;;;;;;;;;5065062;28;20460;-41
2023/01/21 10:38:41;;;;;;;1.48;1.38;;;;;;;;;;5063063;28;20051;-41
2023/01/21 10:41:33;;;;;;;1.95;1.42;;;;;;;;;;5064585;28;20032;-42
2023/01/21 10:44:14;;;;;;;1.60;1.50;;;;;;;;;;5065607;28;20834;-42
2023/01/21 10:47:01;;;;;;;3.85;1.50;;;;;;;;;;5068122;28;20451;-42
2023/01/21 10:49:43;;;;;;;1.98;1.75;;;;;;;;;;5066620;28;20044;-42
2023/01/21 10:52:24;;;;;;;1.77;1.67;;;;;;;;;;5064882;28;20033;-43
2023/01/21 10:55:04;;;;;;;2.10;1.58;;;;;;;;;;5065696;28;20044;-41
2023/01/21 10:57:29;;;;;;;1.65;1.55;;;;;;;;;;5065146;28;20052;-41
2023/01/21 11:00:00;;;;;;;1.90;1.70;;;;;;;;;;5067125;28;20574;-44
2023/01/21 11:02:31;;;;;;;2.47;1.48;;;;;;;;;;5063297;28;20036;-42
2023/01/21 11:05:00;;;;;;;2.00;1.83;;;;;;;;;;5065220;28;20064;-41
2023/01/21 11:07:33;;;;;;;3.45;2.75;;;;;;;;;;5049804;28;20033;-43
2023/01/21 11:10:01;;;;;;;2.88;2.42;;;;;;;;;;5065642;28;20028;-41
2023/01/21 11:12:26;;;;;;;3.65;1.73;;;;;;;;;;5062580;28;20043;-42
2023/01/21 11:15:01;;;;;;;3.25;2.65;;;;;;;;;;5065676;28;20028;-41
2023/01/21 11:17:36;;;;;;;1.90;1.80;;;;;;;;;;5065753;28;20036;-41
2023/01/21 11:20:14;;;;;;;2.30;1.88;;;;;;;;;;5063590;28;20107;-42
2023/01/21 11:22:42;;;;;;;1.83;1.73;;;;;;;;;;5065084;28;20029;-42
2023/01/21 11:25:41;;;;;;;1.77;1.65;;;;;;;;;;5065161;28;20029;-42
2023/01/21 11:28:28;;;;;;;2.10;1.95;;;;;;;;;;5062792;28;21385;-41
2023/01/21 11:31:14;;;;;;;1.95;1.73;;;;;;;;;;5062727;28;20075;-41
2023/01/21 11:33:41;;;;;;;2.65;1.88;;;;;;;;;;5063449;28;20046;-41
2023/01/21 11:36:12;;;;;;;2.35;1.80;;;;;;;;;;5065323;28;20016;-41
2023/01/21 11:38:38;;;;;;;6.30;2.10;;;;;;;;;;5063762;28;20131;-42
2023/01/21 11:41:16;;;;;;;3.85;1.95;;;;;;;;;;5065762;28;20508;-42
2023/01/21 11:43:41;;;;;;;2.17;1.98;;;;;;;;;;5062756;28;20040;-41
2023/01/21 11:46:27;;;;;;;1.75;1.65;;;;;;;;;;5066718;28;20179;-41
2023/01/21 11:49:16;;;;;;;2.20;1.75;;;;;;;;;;5065465;28;20037;-41
2023/01/21 11:51:44;;;;;;;2.65;1.90;;;;;;;;;;5064731;28;20138;-41
2023/01/21 11:54:12;;;;;;;2.35;2.13;;;;;;;;;;5062652;28;20059;-41
2023/01/21 11:56:38;;;;;;;2.53;1.85;;;;;;;;;;5065437;28;20500;-41
2023/01/21 11:59:19;;;;;;;1.88;1.75;;;;;;;;;;5062676;28;20435;-41
2023/01/21 12:02:09;;;;;;;2.63;2.00;;;;;;;;;;5061594;28;20040;-42
2023/01/21 12:04:35;;;;;;;2.53;2.33;;;;;;;;;;5059858;28;20037;-42
2023/01/21 12:07:02;;;;;;;2.60;2.40;;;;;;;;;;5063248;28;20123;-41
2023/01/21 12:09:28;;;;;;;2.75;2.20;;;;;;;;;;5065701;28;20228;-42
2023/01/21 12:12:18;;;;;;;2.50;2.30;;;;;;;;;;5059947;28;20403;-45
2023/01/21 12:14:49;;;;;;;2.00;1.90;;;;;;;;;;5063951;28;20098;-42
2023/01/21 12:17:24;;;;;;;2.25;1.80;;;;;;;;;;5063325;28;20415;-41
2023/01/21 12:20:10;;;;;;;3.53;2.00;;;;;;;;;;5060208;28;20029;-41
2023/01/21 12:22:57;;;;;;;2.67;1.95;;;;;;;;;;5061525;28;20044;-41
2023/01/21 12:25:39;;;;;;;2.58;2.38;;;;;;;;;;5065942;28;20139;-41
2023/01/21 12:28:32;;;;;;;2.60;2.15;;;;;;;;;;5063589;28;20037;-42
2023/01/21 12:31:04;;;;;;;;;;;;;;;;;;5061393;28;20063;-41
2023/01/21 12:33:30;;;;;;;4.28;2.80;;;;;;;;;;5063726;28;20372;-41
2023/01/21 12:36:00;;;;;;;2.92;2.67;;;;;;;;;;5062656;28;20104;-42
2023/01/21 12:38:37;;;;;;;2.45;2.25;;;;;;;;;;5062229;28;20497;-41
2023/01/21 12:41:14;;;;;;;2.45;2.25;;;;;;;;;;5061883;28;20028;-41
2023/01/21 12:43:45;;;;;;;2.53;2.33;;;;;;;;;;5064257;28;20048;-42
2023/01/21 12:46:19;;;;;;;2.67;2.25;;;;;;;;;;5054829;28;20028;-41
2023/01/21 12:48:54;;;;;;;3.92;2.35;;;;;;;;;;5058928;28;20060;-42
2023/01/21 12:51:26;;;;;;;2.30;2.03;;;;;;;;;;5058681;28;20036;-41
2023/01/21 12:54:24;;;;;;;2.08;1.95;;;;;;;;;;5058525;28;20036;-41
2023/01/21 12:57:19;;;;;;;2.75;2.17;;;;;;;;;;5039545;28;20052;-46
2023/01/21 12:59:57;;;;;;;3.58;2.20;;;;;;;;;;5053959;28;20040;-41
2023/01/21 13:03:02;;;;;;;2.50;2.30;;;;;;;;;;5060500;28;20036;-42
2023/01/21 13:05:46;;;;;;;2.70;2.50;;;;;;;;;;5027656;28;20041;-41
2023/01/21 13:08:17;;;;;;;3.78;2.80;;;;;;;;;;5033398;28;20099;-41
2023/01/21 13:11:03;;;;;;;4.57;2.37;;;;;;;;;;5031875;28;20083;-41
2023/01/21 13:13:40;;;;;;;3.10;2.25;;;;;;;;;;5035439;28;20037;-46
2023/01/21 13:16:08;;;;;;;3.60;2.33;;;;;;;;;;5035181;28;20045;-41
2023/01/21 13:18:46;;;;;;;4.18;2.53;;;;;;;;;;5029638;28;20037;-41
2023/01/21 13:21:37;;;;;;;5.93;2.33;;;;;;;;;;5042353;28;20158;-41
2023/01/21 13:24:15;;;;;;;2.30;2.10;;;;;;;;;;5029879;28;20040;-41
2023/01/21 13:26:52;;;;;;;2.33;1.90;;;;;;;;;;5031484;28;20125;-41
2023/01/21 13:29:35;;;;;;;3.00;2.60;;;;;;;;;;5031922;28;20083;-42
2023/01/21 13:32:00;;;;;;;2.20;2.00;;;;;;;;;;5033461;28;20716;-41
2023/01/21 13:34:36;;;;;;;2.55;2.35;;;;;;;;;;5033133;28;20040;-44
2023/01/21 13:37:30;;;;;;;2.47;2.28;;;;;;;;;;5029747;28;20040;-41
2023/01/21 13:40:05;;;;;;;3.08;2.67;;;;;;;;;;4993347;28;20053;-41
2023/01/21 13:42:56;;;;;;;3.10;2.70;;;;;;;;;;4980039;28;20126;-41
2023/01/21 13:45:24;;;;;;;8.63;2.70;;;;;;;;;;4964295;28;20034;-41
2023/01/21 13:47:55;;;;;;;2.03;1.88;;;;;;;;;;4962868;28;20156;-40
2023/01/21 13:50:35;;;;;;;2.25;2.05;;;;;;;;;;4958993;28;20031;-41
2023/01/21 13:53:15;;;;;;;3.55;2.00;;;;;;;;;;4963417;28;20047;-41
2023/01/21 13:56:06;;;;;;;2.72;2.53;;;;;;;;;;4961217;28;20472;-41
2023/01/21 13:58:43;;;;;;;2.97;2.40;;;;;;;;;;4960495;28;20047;-41
2023/01/21 14:01:14;;;;;;;3.00;2.80;;;;;;;;;;4965035;28;20114;-41
2023/01/21 14:04:03;;;;;;;2.40;2.20;;;;;;;;;;4965319;28;20090;-41
2023/01/21 14:06:48;;;;;;;6.30;2.47;;;;;;;;;;4961423;28;20513;-41
2023/01/21 14:09:22;;;;;;;2.75;2.45;;;;;;;;;;4962161;28;20181;-41
2023/01/21 14:11:52;;;;;;;3.17;2.53;;;;;;;;;;4963141;28;20089;-41
2023/01/21 14:14:42;;;;;;;3.28;2.53;;;;;;;;;;4963468;28;20496;-43
2023/01/21 14:17:31;;;;;;;2.45;2.25;;;;;;;;;;5020716;28;20500;-41
2023/01/21 14:20:03;;;;;;;3.50;2.45;;;;;;;;;;5058812;28;20053;-42
2023/01/21 14:22:37;;;;;;;1.92;1.75;;;;;;;;;;5058130;28;20115;-41
2023/01/21 14:25:12;;;;;;;5.35;2.20;;;;;;;;;;5061148;28;20096;-41
2023/01/21 14:28:05;;;;;;;3.05;2.03;;;;;;;;;;5060649;28;20037;-42
2023/01/21 14:30:58;;;;;;;3.35;2.10;;;;;;;;;;5063445;28;20481;-41
2023/01/21 14:33:36;;;;;;;;;;;;;;;;;;5057528;28;20409;-42
2023/01/21 14:36:17;;;;;;;5.68;2.95;;;;;;;;;;5067683;28;20018;-42
2023/01/21 14:39:07;;;;;;;3.13;2.50;;;;;;;;;;5064495;28;20090;-42
2023/01/21 14:41:53;;;;;;;2.65;2.45;;;;;;;;;;5064373;28;20100;-41
2023/01/21 14:44:38;;;;;;;2.72;2.53;;;;;;;;;;5059672;28;20040;-41
2023/01/21 14:47:11;;;;;;;2.90;2.40;;;;;;;;;;5062040;28;20550;-42
2023/01/21 14:49:45;;;;;;;3.65;2.90;;;;;;;;;;5066312;28;20637;-41
2023/01/21 14:52:13;;;;;;;2.88;2.65;;;;;;;;;;5065810;28;20043;-41
2023/01/21 14:54:42;;;;;;;4.47;2.90;;;;;;;;;;5065129;28;20116;-41
2023/01/21 14:57:34;;;;;;;6.90;3.53;;;;;;;;;;5065846;28;20032;-42
2023/01/21 15:00:09;;;;;;;2.25;2.15;;;;;;;;;;5062298;28;20101;-41
2023/01/21 15:02:39;;;;;;;2.45;2.28;;;;;;;;;;5063033;28;20044;-41
2023/01/21 15:05:07;;;;;;;2.60;2.40;;;;;;;;;;5064424;28;20032;-42
2023/01/21 15:07:37;;;;;;;7.85;2.70;;;;;;;;;;5065425;28;20126;-42
2023/01/21 15:10:13;;;;;;;3.40;3.10;;;;;;;;;;5062713;28;20597;-42
2023/01/21 15:12:46;;;;;;;11.10;6.88;;;;;;;;;;5058930;28;20183;-42